createdAt,value
2018-06-15T00:02:22.298Z,62.43
2018-06-15T00:04:56.677Z,44.00
2018-06-15T00:07:30.990Z,49.77
2018-06-15T00:10:04.366Z,46.47
2018-06-15T00:12:51.170Z,41.63
2018-06-15T00:15:29.470Z,85.83
2018-06-15T00:18:02.803Z,66.50
2018-06-15T00:20:46.467Z,49.67
2018-06-15T00:23:20.035Z,47.77
2018-06-15T00:25:54.950Z,65.00
2018-06-15T00:28:30.727Z,71.17
2018-06-15T00:31:06.995Z,74.23
2018-06-15T00:33:39.930Z,46.63
2018-06-15T00:36:12.674Z,49.93
2018-06-15T00:38:46.793Z,54.63
2018-06-15T00:41:19.648Z,77.50
2018-06-15T00:43:53.558Z,57.57
2018-06-15T00:46:27.252Z,68.63
2018-06-15T00:49:00.160Z,46.13
2018-06-15T00:51:32.888Z,54.43
2018-06-15T00:54:05.802Z,53.60
2018-06-15T00:56:43.960Z,36.70
2018-06-15T00:59:17.229Z,55.60
2018-06-15T01:01:49.825Z,65.13
2018-06-15T01:04:22.882Z,47.43
2018-06-15T01:06:55.726Z,65.93
2018-06-15T01:09:28.542Z,59.33
2018-06-15T01:12:01.243Z,57.67
2018-06-15T01:14:33.954Z,66.13
2018-06-15T01:17:09.211Z,62.50
2018-06-15T01:19:42.065Z,59.60
2018-06-15T01:22:15.795Z,57.83
2018-06-15T01:24:48.509Z,58.03
2018-06-15T01:27:21.485Z,61.77
2018-06-15T01:29:54.355Z,58.63
2018-06-15T01:32:28.048Z,60.07
2018-06-15T01:35:00.670Z,65.10
2018-06-15T01:37:33.557Z,53.57
2018-06-15T01:40:08.172Z,59.00
2018-06-15T01:42:44.599Z,66.93
2018-06-15T01:45:43.954Z,59.40
2018-06-15T01:48:19.506Z,78.43
2018-06-15T01:50:51.832Z,83.17
2018-06-15T01:53:24.035Z,75.77
2018-06-15T01:55:57.701Z,88.00
2018-06-15T02:01:51.020Z,77.63
2018-06-15T02:07:53.025Z,69.87
2018-06-15T02:10:31.423Z,77.07
2018-06-15T02:13:04.005Z,69.33
2018-06-15T02:19:07.777Z,64.60
2018-06-15T02:21:40.232Z,72.40
2018-06-15T02:24:12.917Z,76.60
2018-06-15T02:26:45.488Z,67.70
2018-06-15T02:29:18.051Z,74.97
2018-06-15T02:31:49.076Z,77.03
2018-06-15T02:34:21.365Z,73.50
2018-06-15T02:36:53.800Z,82.80
2018-06-15T02:39:26.152Z,90.87
2018-06-15T02:41:58.549Z,118.00
2018-06-15T02:45:07.054Z,102.13
2018-06-15T02:47:39.668Z,65.37
2018-06-15T02:50:12.570Z,51.47
2018-06-15T02:52:45.433Z,62.47
2018-06-15T02:55:18.789Z,56.27
2018-06-15T03:01:12.096Z,70.90
2018-06-15T03:03:44.731Z,66.97
2018-06-15T03:06:17.222Z,57.50
2018-06-15T03:08:52.847Z,66.83
2018-06-15T03:11:26.000Z,72.60
2018-06-15T03:13:58.752Z,69.47
2018-06-15T03:16:31.352Z,60.67
2018-06-15T03:19:03.869Z,72.33
2018-06-15T03:21:36.430Z,80.80
2018-06-15T03:27:31.111Z,80.47
2018-06-15T03:30:08.630Z,85.17
2018-06-15T03:32:51.410Z,70.77
2018-06-15T03:35:35.629Z,82.03
2018-06-15T03:38:09.712Z,87.60
2018-06-15T03:40:43.429Z,97.27
2018-06-15T03:43:15.441Z,96.93
2018-06-15T03:45:47.539Z,101.90
2018-06-15T03:48:19.758Z,85.30
2018-06-15T03:50:51.825Z,84.43
2018-06-15T03:53:23.907Z,86.60
2018-06-15T03:55:55.957Z,91.03
2018-06-15T03:58:28.104Z,85.87
2018-06-15T04:01:00.102Z,73.83
2018-06-15T04:03:32.061Z,82.97
2018-06-15T04:06:04.223Z,84.43
2018-06-15T04:08:36.354Z,82.20
2018-06-15T04:11:08.531Z,72.57
2018-06-15T04:13:40.507Z,57.50
2018-06-15T04:16:12.560Z,65.20
2018-06-15T04:18:44.666Z,71.43
2018-06-15T04:24:48.298Z,50.87
2018-06-15T04:27:20.781Z,56.20
2018-06-15T04:29:53.332Z,54.03
2018-06-15T04:32:25.822Z,49.30
2018-06-15T04:34:58.634Z,45.80
2018-06-15T04:37:37.614Z,46.77
2018-06-15T04:40:16.468Z,48.07
2018-06-15T04:42:49.031Z,43.67
2018-06-15T04:45:21.555Z,41.77
2018-06-15T04:47:59.555Z,46.47
2018-06-15T04:50:33.916Z,43.70
2018-06-15T04:53:06.374Z,54.33
2018-06-15T04:55:38.843Z,51.83
2018-06-15T04:58:11.356Z,54.67
2018-06-15T05:00:44.005Z,51.77
2018-06-15T05:03:17.128Z,52.00
2018-06-15T05:05:49.632Z,55.07
2018-06-15T05:08:22.617Z,59.57
2018-06-15T05:10:55.158Z,54.50
2018-06-15T05:13:27.733Z,55.50
2018-06-15T05:16:00.466Z,56.07
2018-06-15T05:18:33.197Z,59.37
2018-06-15T05:21:05.768Z,68.07
2018-06-15T05:23:38.280Z,76.83
2018-06-15T05:26:10.737Z,79.00
2018-06-15T05:28:43.123Z,67.93
2018-06-15T05:31:15.624Z,67.80
2018-06-15T05:33:48.283Z,69.67
2018-06-15T05:36:20.604Z,63.73
2018-06-15T05:38:53.345Z,65.87
2018-06-15T05:41:25.970Z,71.57
2018-06-15T05:43:58.413Z,71.20
2018-06-15T05:46:30.811Z,63.93
2018-06-15T05:49:05.460Z,64.40
2018-06-15T05:51:37.926Z,62.97
2018-06-15T05:54:10.562Z,67.27
2018-06-15T05:56:42.886Z,64.20
2018-06-15T05:59:15.390Z,65.67
2018-06-15T06:01:47.827Z,63.57
2018-06-15T06:04:21.596Z,63.23
2018-06-15T06:10:47.765Z,65.97
2018-06-15T06:13:24.279Z,67.83
2018-06-15T06:15:57.287Z,65.23
2018-06-15T06:18:30.228Z,67.20
2018-06-15T06:21:03.203Z,72.13
2018-06-15T06:23:36.717Z,63.77
2018-06-15T06:26:09.492Z,64.53
2018-06-15T06:28:42.936Z,66.80
2018-06-15T06:31:16.412Z,75.33
2018-06-15T06:33:48.932Z,78.30
2018-06-15T06:39:42.083Z,76.93
2018-06-15T06:42:13.096Z,94.67
2018-06-15T06:44:45.216Z,84.37
2018-06-15T06:47:17.340Z,77.47
2018-06-15T06:49:49.504Z,83.40
2018-06-15T06:52:21.620Z,81.47
2018-06-15T06:54:53.767Z,67.87
2018-06-15T06:57:26.495Z,64.90
2018-06-15T06:59:58.691Z,58.07
2018-06-15T07:02:30.919Z,65.90
2018-06-15T07:05:03.098Z,63.57
2018-06-15T07:07:35.343Z,54.53
2018-06-15T07:10:09.609Z,60.93
2018-06-15T07:12:42.827Z,58.23
2018-06-15T07:15:15.060Z,55.63
2018-06-15T07:17:47.120Z,61.70
2018-06-15T07:20:19.230Z,58.27
2018-06-15T07:22:51.521Z,55.03
2018-06-15T07:25:23.703Z,60.63
2018-06-15T07:27:55.907Z,58.77
2018-06-15T07:30:28.045Z,59.97
2018-06-15T07:33:00.147Z,61.97
2018-06-15T07:35:32.794Z,74.73
2018-06-15T07:38:06.699Z,67.63
2018-06-15T07:40:39.059Z,72.90
2018-06-15T07:43:11.301Z,68.40
2018-06-15T07:45:43.599Z,77.93
2018-06-15T07:48:16.302Z,80.93
2018-06-15T07:50:48.428Z,80.97
2018-06-15T07:53:20.503Z,72.60
2018-06-15T07:55:52.765Z,79.77
2018-06-15T07:58:24.920Z,81.70
2018-06-15T08:00:56.992Z,77.87
2018-06-15T08:03:29.157Z,59.27
2018-06-15T08:06:01.255Z,64.23
2018-06-15T08:08:33.428Z,64.93
2018-06-15T08:11:05.735Z,72.47
2018-06-15T08:13:38.145Z,60.57
2018-06-15T08:16:11.112Z,64.80
2018-06-15T08:18:43.612Z,66.57
2018-06-15T08:21:15.798Z,62.07
2018-06-15T08:23:47.921Z,66.67
2018-06-15T08:26:20.984Z,59.80
2018-06-15T08:28:53.202Z,57.83
2018-06-15T08:31:55.089Z,54.53
2018-06-15T08:34:27.274Z,51.93
2018-06-15T08:36:59.389Z,57.17
2018-06-15T08:39:31.541Z,58.37
2018-06-15T08:42:03.652Z,61.23
2018-06-15T08:44:35.828Z,62.17
2018-06-15T08:47:08.141Z,75.77
2018-06-15T08:49:41.150Z,69.57
2018-06-15T08:52:13.446Z,66.70
2018-06-15T08:54:45.754Z,63.57
2018-06-15T08:57:17.939Z,70.23
2018-06-15T09:03:11.631Z,67.07
2018-06-15T09:05:44.138Z,66.03
2018-06-15T09:08:16.765Z,76.27
2018-06-15T09:14:09.400Z,74.83
2018-06-15T09:20:12.845Z,78.40
2018-06-15T09:22:45.370Z,82.23
2018-06-15T09:25:17.690Z,78.00
2018-06-15T09:27:50.070Z,87.33
2018-06-15T09:30:22.253Z,110.13
2018-06-15T09:32:54.521Z,108.03
2018-06-15T09:35:26.704Z,104.53
2018-06-15T09:37:59.022Z,103.97
2018-06-15T09:40:31.271Z,101.70
2018-06-15T09:43:03.497Z,106.97
2018-06-15T09:45:35.676Z,109.90
2018-06-15T09:48:08.500Z,109.70
2018-06-15T09:50:41.342Z,108.17
2018-06-15T09:53:12.413Z,108.67
2018-06-15T09:55:45.546Z,122.00
2018-06-15T09:58:17.822Z,106.80
2018-06-15T10:00:52.238Z,104.10
2018-06-15T10:03:24.508Z,119.30
2018-06-15T10:05:56.765Z,128.47
2018-06-15T10:08:28.993Z,139.70
2018-06-15T10:11:01.174Z,138.03
2018-06-15T10:13:33.462Z,148.00
2018-06-15T10:16:05.848Z,151.17
2018-06-15T10:18:38.097Z,155.63
2018-06-15T10:21:10.341Z,173.50
2018-06-15T10:23:43.028Z,172.80
2018-06-15T10:26:15.429Z,157.47
2018-06-15T10:28:47.604Z,158.40
2018-06-15T10:31:19.983Z,172.33
2018-06-15T10:33:52.296Z,176.47
2018-06-15T10:36:24.476Z,192.73
2018-06-15T10:38:56.717Z,170.33
2018-06-15T10:41:28.930Z,196.50
2018-06-15T10:44:01.230Z,205.73
2018-06-15T10:46:33.676Z,205.47
2018-06-15T10:49:05.976Z,189.40
2018-06-15T10:51:38.194Z,196.03
2018-06-15T10:54:10.549Z,169.17
2018-06-15T10:56:42.789Z,152.90
2018-06-15T10:59:15.467Z,153.43
2018-06-15T11:01:47.695Z,130.03
2018-06-15T11:04:19.904Z,129.87
2018-06-15T11:06:52.126Z,112.17
2018-06-15T11:09:24.548Z,112.27
2018-06-15T11:11:56.939Z,120.17
2018-06-15T11:14:29.406Z,111.00
2018-06-15T11:17:01.722Z,103.83
2018-06-15T11:19:34.043Z,92.23
2018-06-15T11:22:06.414Z,90.67
2018-06-15T11:24:38.632Z,80.20
2018-06-15T11:27:11.017Z,95.40
2018-06-15T11:30:28.415Z,87.70
2018-06-15T11:33:01.240Z,90.33
2018-06-15T11:35:33.922Z,107.07
2018-06-15T11:38:06.717Z,103.30
2018-06-15T11:40:40.389Z,108.50
2018-06-15T11:46:34.320Z,119.83
2018-06-15T11:49:09.492Z,132.27
2018-06-15T11:51:41.791Z,140.43
2018-06-15T11:54:13.775Z,171.03
2018-06-15T11:56:46.148Z,136.70
2018-06-15T11:59:18.552Z,133.17
2018-06-15T12:01:50.905Z,117.13
2018-06-15T12:04:23.168Z,102.03
2018-06-15T12:06:55.270Z,100.53
2018-06-15T12:09:27.391Z,88.10
2018-06-15T12:12:02.063Z,76.33
2018-06-15T12:14:34.394Z,82.07
2018-06-15T12:17:06.481Z,86.03
2018-06-15T12:19:40.044Z,82.30
2018-06-15T12:22:12.606Z,75.63
2018-06-15T12:31:36.674Z,75.97
2018-06-15T12:34:09.215Z,74.23
2018-06-15T12:36:41.905Z,80.67
2018-06-15T12:39:51.335Z,73.57
2018-06-15T12:42:24.258Z,70.73
2018-06-15T12:44:56.502Z,69.70
2018-06-15T12:47:28.652Z,76.93
2018-06-15T12:50:00.918Z,66.73
2018-06-15T12:52:33.199Z,61.03
2018-06-15T12:55:05.499Z,61.47
2018-06-15T12:57:37.977Z,71.60
2018-06-15T13:00:10.283Z,56.00
2018-06-15T13:02:42.533Z,49.63
2018-06-15T13:05:15.268Z,48.17
2018-06-15T13:07:47.628Z,49.97
2018-06-15T13:10:20.600Z,50.70
2018-06-15T13:12:53.016Z,39.97
2018-06-15T13:15:30.197Z,39.93
2018-06-15T13:18:32.134Z,43.27
2018-06-15T13:21:04.424Z,45.23
2018-06-15T13:23:36.818Z,37.10
2018-06-15T13:29:30.138Z,49.40
2018-06-15T13:32:02.337Z,39.33
2018-06-15T13:34:34.435Z,40.33
2018-06-15T13:37:06.694Z,36.30
2018-06-15T13:39:40.500Z,41.10
2018-06-15T13:42:14.207Z,47.93
2018-06-15T13:44:46.342Z,39.60
2018-06-15T13:47:18.650Z,34.03
2018-06-15T13:49:50.871Z,27.43
2018-06-15T13:52:22.990Z,36.67
2018-06-15T13:54:55.360Z,30.63
2018-06-15T13:57:27.548Z,44.03
2018-06-15T13:59:59.676Z,34.13
2018-06-15T14:02:31.857Z,37.67
2018-06-15T14:05:04.026Z,36.10
2018-06-15T14:07:36.424Z,34.00
2018-06-15T14:10:08.766Z,30.43
2018-06-15T14:15:18.660Z,35.70
2018-06-15T14:17:50.924Z,29.83
2018-06-15T14:20:23.105Z,28.20
2018-06-15T14:22:54.117Z,27.80
2018-06-15T14:25:26.381Z,23.10
2018-06-15T14:27:58.616Z,22.53
2018-06-15T14:30:30.735Z,17.50
2018-06-15T14:33:02.954Z,24.77
2018-06-15T14:35:35.219Z,19.53
2018-06-15T14:38:07.470Z,38.63
2018-06-15T14:40:39.572Z,17.50
2018-06-15T14:43:12.400Z,28.50
2018-06-15T14:45:44.676Z,32.07
2018-06-15T14:48:17.632Z,35.57
2018-06-15T14:50:50.242Z,22.00
2018-06-15T14:53:22.552Z,22.80
2018-06-15T14:55:54.838Z,28.77
2018-06-15T14:58:27.183Z,27.53
2018-06-15T15:01:00.149Z,30.90
2018-06-15T15:03:33.813Z,26.60
2018-06-15T15:06:11.234Z,29.43
2018-06-15T15:08:43.683Z,23.93
2018-06-15T15:11:15.956Z,23.67
2018-06-15T15:13:51.080Z,24.70
2018-06-15T15:16:23.411Z,19.30
2018-06-15T15:18:55.706Z,20.90
2018-06-15T15:21:28.674Z,30.47
2018-06-15T15:24:01.491Z,22.87
2018-06-15T15:26:35.370Z,27.27
2018-06-15T15:29:08.950Z,23.33
2018-06-15T15:31:43.528Z,36.80
2018-06-15T15:34:17.040Z,22.13
2018-06-15T15:36:50.394Z,17.77
2018-06-15T15:39:25.075Z,25.20
2018-06-15T15:42:00.585Z,20.67
2018-06-15T15:44:35.787Z,18.13
2018-06-15T15:47:08.047Z,20.77
2018-06-15T15:49:41.259Z,27.90
2018-06-15T15:52:16.030Z,21.33
2018-06-15T15:54:52.227Z,27.10
2018-06-15T15:57:33.706Z,24.47
2018-06-15T16:00:06.508Z,23.17
2018-06-15T16:05:49.799Z,21.53
2018-06-15T16:08:25.422Z,28.57
2018-06-15T16:11:00.627Z,18.40
2018-06-15T16:13:37.937Z,21.23
2018-06-15T16:16:23.550Z,20.47
2018-06-15T16:18:57.234Z,36.33
2018-06-15T16:21:31.000Z,19.73
2018-06-15T16:24:04.356Z,17.43
2018-06-15T16:26:49.919Z,19.20
2018-06-15T16:29:32.775Z,22.23
2018-06-15T16:32:12.381Z,15.13
2018-06-15T16:34:50.752Z,34.87
2018-06-15T16:37:24.548Z,20.97
2018-06-15T16:39:59.121Z,13.47
2018-06-15T16:42:32.898Z,16.90
2018-06-15T16:45:06.485Z,14.50
2018-06-15T16:47:41.545Z,20.87
2018-06-15T16:50:15.476Z,22.10
2018-06-15T16:52:52.587Z,20.30
2018-06-15T16:55:25.807Z,23.40
2018-06-15T16:58:01.827Z,18.30
2018-06-15T17:00:36.174Z,27.30
2018-06-15T17:03:11.707Z,25.83
2018-06-15T17:05:46.639Z,24.55
2018-06-15T17:08:20.912Z,25.30
2018-06-15T17:11:03.020Z,17.85
2018-06-15T17:13:37.038Z,21.27
2018-06-15T17:16:17.552Z,13.10
2018-06-15T17:18:55.213Z,11.68
2018-06-15T17:21:29.437Z,16.10
2018-06-15T17:24:09.442Z,20.15
2018-06-15T17:26:43.223Z,19.00
2018-06-15T17:29:15.119Z,16.70
2018-06-15T17:31:48.885Z,20.68
2018-06-15T17:34:25.768Z,12.73
2018-06-15T17:37:02.778Z,35.28
2018-06-15T17:39:36.639Z,20.15
2018-06-15T17:42:14.915Z,25.02
2018-06-15T17:44:51.617Z,20.27
2018-06-15T17:47:33.605Z,15.23
2018-06-15T17:50:09.824Z,25.00
2018-06-15T17:52:50.516Z,21.68
2018-06-15T17:55:24.815Z,14.15
2018-06-15T17:57:56.830Z,27.75
2018-06-15T18:00:31.255Z,17.57
2018-06-15T18:03:08.761Z,27.77
2018-06-15T18:05:42.055Z,34.75
2018-06-15T18:08:15.433Z,23.27
2018-06-15T18:10:49.367Z,20.85
2018-06-15T18:13:28.245Z,28.17
2018-06-15T18:16:04.851Z,20.50
2018-06-15T18:18:42.198Z,27.45
2018-06-15T18:21:15.495Z,16.30
2018-06-15T18:23:49.355Z,19.52
2018-06-15T18:26:23.258Z,28.47
2018-06-15T18:28:56.441Z,23.07
2018-06-15T18:31:31.677Z,33.15
2018-06-15T18:34:04.995Z,22.67
2018-06-15T18:42:41.640Z,34.63
2018-06-15T18:45:25.662Z,17.32
2018-06-15T18:48:05.051Z,12.35
2018-06-15T18:50:41.457Z,15.32
2018-06-15T18:53:18.823Z,25.05
2018-06-15T18:55:53.431Z,28.12
2018-06-15T18:58:29.660Z,25.15
2018-06-15T19:01:24.993Z,19.17
2018-06-15T19:04:00.162Z,26.90
2018-06-15T19:06:33.926Z,20.75
2018-06-15T19:09:38.770Z,24.25
2018-06-15T19:12:12.347Z,17.67
2018-06-15T19:20:18.824Z,31.35
2018-06-15T19:22:58.032Z,32.65
2018-06-15T19:25:40.781Z,33.65
2018-06-15T19:28:15.124Z,20.10
2018-06-15T19:30:54.773Z,26.12
2018-06-15T19:33:37.094Z,19.27
2018-06-15T19:38:49.584Z,26.90
2018-06-15T19:41:33.978Z,24.35
2018-06-15T19:44:11.991Z,30.43
2018-06-15T19:46:49.003Z,29.25
2018-06-15T19:49:24.582Z,25.90
2018-06-15T19:51:59.315Z,33.67
2018-06-15T19:54:34.291Z,22.37
2018-06-15T19:57:09.646Z,22.73
2018-06-15T19:59:45.437Z,21.45
2018-06-15T20:02:28.516Z,29.40
2018-06-15T20:05:05.331Z,32.58
2018-06-15T20:08:14.913Z,27.20
2018-06-15T20:16:49.481Z,25.40
2018-06-15T20:19:30.864Z,32.63
2018-06-15T20:22:11.481Z,25.80
2018-06-15T20:27:41.908Z,23.80
2018-06-15T20:36:51.399Z,24.25
2018-06-15T20:42:31.875Z,23.85
2018-06-15T20:45:16.813Z,28.98
2018-06-15T20:47:53.067Z,30.95
2018-06-15T20:53:32.922Z,23.95
2018-06-15T20:56:30.850Z,22.37
2018-06-15T21:05:03.682Z,19.90
2018-06-15T21:07:42.144Z,27.02
2018-06-15T21:10:24.382Z,26.15
2018-06-15T21:13:02.125Z,21.65
2018-06-15T21:15:35.798Z,24.17
2018-06-15T21:18:12.954Z,22.32
2018-06-15T21:27:08.804Z,36.67
2018-06-15T23:51:51.945Z,10.17
2018-06-15T23:54:29.663Z,9.90
2018-06-15T23:57:06.539Z,8.77
2018-06-15T23:59:38.943Z,9.77
